createdAt,value
2019-01-16T00:02:15.786Z,9.10
2019-01-16T00:04:48.591Z,9.33
2019-01-16T00:07:21.998Z,8.60
2019-01-16T00:09:55.418Z,8.93
2019-01-16T00:12:31.803Z,9.33
2019-01-16T00:15:18.361Z,8.80
2019-01-16T00:17:48.735Z,9.17
2019-01-16T00:20:24.785Z,9.50
2019-01-16T00:23:08.867Z,8.60
2019-01-16T00:25:42.386Z,9.80
2019-01-16T00:28:13.044Z,11.20
2019-01-16T00:30:43.590Z,8.93
2019-01-16T00:33:13.813Z,9.77
2019-01-16T00:35:44.186Z,9.43
2019-01-16T00:38:20.347Z,10.30
2019-01-16T00:41:05.984Z,9.80
2019-01-16T00:43:54.925Z,10.10
2019-01-16T00:46:40.306Z,9.60
2019-01-16T00:49:19.591Z,9.63
2019-01-16T00:51:49.964Z,8.47
2019-01-16T00:54:36.357Z,8.00
2019-01-16T00:57:15.650Z,9.50
2019-01-16T01:00:01.175Z,8.47
2019-01-16T01:02:34.235Z,8.73
2019-01-16T01:05:04.687Z,8.23
2019-01-16T01:07:35.092Z,8.13
2019-01-16T01:10:22.286Z,9.20
2019-01-16T01:12:52.756Z,7.80
2019-01-16T01:15:39.681Z,9.00
2019-01-16T01:18:32.014Z,7.97
2019-01-16T01:21:00.237Z,8.00
2019-01-16T01:23:30.617Z,8.50
2019-01-16T01:26:16.036Z,9.60
2019-01-16T01:28:49.130Z,8.43
2019-01-16T01:31:19.547Z,6.73
2019-01-16T01:33:49.871Z,8.90
2019-01-16T01:36:25.936Z,8.03
2019-01-16T01:39:12.680Z,7.00
2019-01-16T01:41:48.692Z,7.93
2019-01-16T01:44:25.077Z,8.00
2019-01-16T01:46:55.390Z,7.10
2019-01-16T01:49:29.588Z,7.83
2019-01-16T01:52:05.899Z,6.90
2019-01-16T01:54:54.336Z,7.67
2019-01-16T01:57:27.237Z,7.40
2019-01-16T02:00:03.765Z,6.70
2019-01-16T02:02:34.075Z,6.80
2019-01-16T02:05:07.499Z,6.70
2019-01-16T02:07:43.528Z,6.60
2019-01-16T02:10:14.156Z,6.50
2019-01-16T02:13:00.603Z,6.50
2019-01-16T02:15:31.319Z,6.10
2019-01-16T02:18:04.342Z,5.83
2019-01-16T02:20:43.301Z,6.00
2019-01-16T02:23:13.868Z,6.63
2019-01-16T02:26:00.990Z,7.60
2019-01-16T02:28:37.353Z,5.80
2019-01-16T02:31:24.296Z,6.57
2019-01-16T02:33:54.998Z,6.50
2019-01-16T02:36:25.695Z,6.20
2019-01-16T02:39:10.829Z,5.93
2019-01-16T02:41:41.279Z,5.80
2019-01-16T02:44:20.966Z,6.60
2019-01-16T02:46:53.865Z,6.20
2019-01-16T02:49:33.387Z,6.90
2019-01-16T02:52:20.149Z,5.80
2019-01-16T02:54:50.440Z,6.50
2019-01-16T02:57:21.131Z,6.43
2019-01-16T02:59:51.360Z,6.10
2019-01-16T03:02:21.662Z,6.70
2019-01-16T03:04:52.015Z,7.43
2019-01-16T03:07:25.410Z,6.40
2019-01-16T03:10:04.455Z,6.57
2019-01-16T03:12:50.023Z,6.97
2019-01-16T03:15:28.886Z,6.67
2019-01-16T03:18:15.603Z,5.93
2019-01-16T03:21:01.862Z,6.30
2019-01-16T03:23:47.385Z,4.93
2019-01-16T03:26:23.760Z,6.60
2019-01-16T03:28:59.797Z,6.50
2019-01-16T03:31:30.541Z,6.23
2019-01-16T03:34:06.429Z,6.83
2019-01-16T03:36:53.135Z,6.70
2019-01-16T03:39:26.381Z,6.90
2019-01-16T03:42:02.893Z,6.90
2019-01-16T03:44:36.243Z,6.80
2019-01-16T03:47:09.638Z,6.33
2019-01-16T03:49:49.101Z,5.97
2019-01-16T03:52:39.263Z,6.57
2019-01-16T03:55:21.701Z,6.47
2019-01-16T03:57:55.074Z,5.37
2019-01-16T04:00:25.643Z,6.93
2019-01-16T04:03:04.576Z,7.43
2019-01-16T04:05:51.208Z,7.13
2019-01-16T04:08:38.077Z,5.37
2019-01-16T04:11:08.374Z,6.33
2019-01-16T04:13:49.502Z,6.87
2019-01-16T04:16:25.468Z,6.70
2019-01-16T04:19:11.983Z,6.60
2019-01-16T04:21:48.196Z,6.03
2019-01-16T04:24:20.968Z,5.47
2019-01-16T04:27:06.279Z,6.50
2019-01-16T04:29:39.324Z,6.47
2019-01-16T04:32:09.813Z,6.87
2019-01-16T04:34:57.704Z,7.17
2019-01-16T04:37:28.070Z,5.70
2019-01-16T04:40:00.853Z,5.77
2019-01-16T04:42:33.604Z,6.30
2019-01-16T04:45:20.123Z,6.43
2019-01-16T04:48:07.191Z,6.50
2019-01-16T04:50:37.796Z,6.20
2019-01-16T04:53:13.798Z,5.93
2019-01-16T04:55:47.069Z,5.50
2019-01-16T04:58:23.282Z,6.10
2019-01-16T05:00:53.607Z,5.93
2019-01-16T05:03:26.800Z,5.63
2019-01-16T05:05:57.453Z,5.07
2019-01-16T05:08:36.805Z,5.90
2019-01-16T05:11:19.597Z,5.20
2019-01-16T05:14:04.850Z,5.67
2019-01-16T05:16:37.608Z,6.33
2019-01-16T05:19:26.542Z,5.30
2019-01-16T05:22:05.820Z,5.53
2019-01-16T05:24:39.380Z,4.60
2019-01-16T05:27:27.522Z,6.00
2019-01-16T05:30:09.947Z,4.87
2019-01-16T05:32:52.400Z,4.87
2019-01-16T05:35:25.781Z,4.57
2019-01-16T05:37:59.168Z,5.07
2019-01-16T05:40:29.826Z,5.17
2019-01-16T05:43:05.749Z,4.90
2019-01-16T05:45:36.077Z,4.70
2019-01-16T05:48:21.954Z,4.63
2019-01-16T05:51:00.983Z,5.17
2019-01-16T05:53:34.521Z,4.80
2019-01-16T05:56:20.871Z,4.30
2019-01-16T05:59:00.258Z,4.50
2019-01-16T06:01:48.366Z,3.73
2019-01-16T06:04:18.824Z,4.23
2019-01-16T06:07:01.101Z,3.23
2019-01-16T06:09:34.198Z,4.23
2019-01-16T06:12:04.592Z,4.07
2019-01-16T06:14:34.912Z,3.93
2019-01-16T06:17:14.170Z,3.83
2019-01-16T06:19:44.480Z,3.90
2019-01-16T06:22:23.651Z,3.40
2019-01-16T06:25:06.004Z,3.20
2019-01-16T06:27:36.394Z,3.73
2019-01-16T06:30:12.254Z,4.27
2019-01-16T06:32:49.758Z,3.77
2019-01-16T06:35:20.194Z,3.90
2019-01-16T06:37:56.372Z,4.50
2019-01-16T06:40:29.591Z,4.00
2019-01-16T06:43:14.602Z,4.43
2019-01-16T06:45:52.412Z,4.10
2019-01-16T06:48:25.812Z,3.43
2019-01-16T06:51:01.858Z,3.93
2019-01-16T06:53:48.788Z,5.37
2019-01-16T06:56:31.149Z,3.93
2019-01-16T06:59:16.687Z,3.70
2019-01-16T07:02:03.309Z,3.60
2019-01-16T07:04:39.830Z,3.43
2019-01-16T07:07:22.548Z,3.70
2019-01-16T07:09:55.329Z,3.77
2019-01-16T07:12:35.217Z,3.67
2019-01-16T07:15:06.732Z,3.20
2019-01-16T07:17:43.273Z,3.23
2019-01-16T07:20:13.679Z,3.50
2019-01-16T07:22:53.361Z,2.90
2019-01-16T07:25:32.778Z,3.77
2019-01-16T07:28:06.292Z,3.33
2019-01-16T07:30:42.659Z,3.00
2019-01-16T07:33:25.408Z,3.50
2019-01-16T07:36:04.497Z,3.70
2019-01-16T07:38:40.406Z,2.73
2019-01-16T07:41:26.036Z,3.03
2019-01-16T07:44:12.942Z,3.43
2019-01-16T07:46:52.334Z,3.33
2019-01-16T07:49:22.693Z,3.37
2019-01-16T07:51:58.495Z,3.00
2019-01-16T07:54:28.795Z,3.70
2019-01-16T07:57:10.773Z,3.60
2019-01-16T07:59:43.881Z,3.03
2019-01-16T08:02:23.200Z,3.50
2019-01-16T08:04:59.395Z,2.90
2019-01-16T08:07:35.766Z,3.30
2019-01-16T08:10:09.315Z,3.93
2019-01-16T08:12:40.005Z,3.90
2019-01-16T08:15:24.350Z,5.60
2019-01-16T08:17:54.667Z,4.97
2019-01-16T08:20:31.001Z,4.33
2019-01-16T08:23:16.508Z,5.30
2019-01-16T08:25:55.821Z,5.80
2019-01-16T08:28:44.351Z,5.80
2019-01-16T08:31:32.435Z,6.10
2019-01-16T08:34:05.777Z,6.73
2019-01-16T08:36:36.250Z,7.03
2019-01-16T08:39:09.059Z,7.93
2019-01-16T08:41:56.034Z,7.93
2019-01-16T08:44:41.475Z,8.17
2019-01-16T08:47:11.698Z,8.47
2019-01-16T08:49:51.057Z,9.50
2019-01-16T08:52:24.161Z,9.47
2019-01-16T08:55:09.742Z,10.97
2019-01-16T08:57:40.223Z,9.60
2019-01-16T09:00:16.445Z,9.77
2019-01-16T09:02:49.823Z,10.70
2019-01-16T09:05:23.278Z,10.60
2019-01-16T09:08:05.858Z,11.30
2019-01-16T09:10:45.283Z,10.80
2019-01-16T09:13:31.977Z,11.50
2019-01-16T09:16:17.616Z,11.10
2019-01-16T09:18:47.932Z,9.70
2019-01-16T09:21:21.553Z,11.23
2019-01-16T09:24:04.247Z,11.30
2019-01-16T09:26:51.059Z,10.37
2019-01-16T09:29:30.401Z,10.20
2019-01-16T09:32:03.683Z,10.03
2019-01-16T09:34:43.117Z,9.93
2019-01-16T09:37:19.714Z,8.40
2019-01-16T09:40:06.553Z,9.13
2019-01-16T09:42:52.938Z,8.20
2019-01-16T09:45:23.162Z,8.37
2019-01-16T09:47:53.993Z,8.10
2019-01-16T09:50:27.386Z,6.63
2019-01-16T09:52:59.428Z,6.60
2019-01-16T09:55:45.946Z,7.33
2019-01-16T09:58:28.310Z,7.87
2019-01-16T10:01:01.843Z,6.40
2019-01-16T10:03:50.698Z,7.03
2019-01-16T10:06:37.625Z,7.50
2019-01-16T10:09:12.866Z,7.37
2019-01-16T10:11:52.558Z,6.30
2019-01-16T10:14:25.753Z,6.07
2019-01-16T10:16:56.096Z,6.10
2019-01-16T10:19:42.784Z,6.07
2019-01-16T10:22:25.494Z,6.10
2019-01-16T10:24:58.819Z,6.83
2019-01-16T10:27:43.858Z,6.57
2019-01-16T10:30:19.809Z,6.80
2019-01-16T10:32:50.134Z,5.67
2019-01-16T10:35:23.461Z,6.50
2019-01-16T10:38:09.050Z,7.03
2019-01-16T10:40:39.334Z,6.53
2019-01-16T10:43:15.588Z,6.40
2019-01-16T10:46:02.218Z,5.90
2019-01-16T10:48:49.858Z,6.87
2019-01-16T10:51:36.643Z,5.20
2019-01-16T10:54:16.346Z,5.23
2019-01-16T10:56:55.711Z,6.13
2019-01-16T10:59:28.737Z,5.77
2019-01-16T11:01:59.118Z,5.60
2019-01-16T11:04:46.173Z,5.83
2019-01-16T11:07:16.519Z,4.90
2019-01-16T11:09:55.532Z,5.13
2019-01-16T11:12:28.805Z,5.17
2019-01-16T11:14:59.115Z,5.13
2019-01-16T11:17:35.605Z,5.33
2019-01-16T11:20:25.281Z,5.70
2019-01-16T11:23:12.295Z,4.43
2019-01-16T11:25:46.037Z,5.57
2019-01-16T11:28:18.878Z,6.17
2019-01-16T11:31:01.444Z,6.50
2019-01-16T11:33:50.198Z,6.00
2019-01-16T11:36:37.361Z,6.20
2019-01-16T11:39:25.006Z,6.73
2019-01-16T11:42:01.107Z,5.67
2019-01-16T11:44:31.529Z,7.30
2019-01-16T11:47:04.897Z,6.90
2019-01-16T11:49:44.151Z,6.87
2019-01-16T11:52:23.492Z,5.97
2019-01-16T11:55:09.901Z,6.10
2019-01-16T11:57:43.024Z,5.23
2019-01-16T12:00:33.976Z,5.67
2019-01-16T12:03:07.325Z,5.27
2019-01-16T12:05:45.557Z,5.63
2019-01-16T12:08:22.579Z,5.37
2019-01-16T12:11:05.148Z,5.77
2019-01-16T12:13:44.756Z,6.10
2019-01-16T12:16:18.238Z,5.30
2019-01-16T12:18:51.431Z,5.03
2019-01-16T12:21:30.833Z,5.60
2019-01-16T12:24:07.347Z,4.63
2019-01-16T12:26:40.843Z,6.13
2019-01-16T12:29:29.530Z,5.33
2019-01-16T12:32:11.799Z,5.20
2019-01-16T12:34:59.448Z,4.50
2019-01-16T12:37:32.881Z,4.87
2019-01-16T12:40:08.848Z,4.30
2019-01-16T12:42:44.941Z,4.90
2019-01-16T12:45:15.422Z,5.03
2019-01-16T12:47:54.844Z,4.67
2019-01-16T12:50:34.439Z,4.40
2019-01-16T12:53:22.944Z,4.43
2019-01-16T12:56:02.385Z,5.10
2019-01-16T12:58:35.801Z,5.27
2019-01-16T13:01:16.213Z,4.53
2019-01-16T13:03:52.979Z,4.10
2019-01-16T13:06:41.555Z,4.80
2019-01-16T13:09:12.217Z,5.20
2019-01-16T13:11:52.479Z,5.10
2019-01-16T13:14:30.022Z,4.37
2019-01-16T13:17:10.126Z,4.90
2019-01-16T13:19:43.487Z,5.30
2019-01-16T13:22:22.741Z,4.60
2019-01-16T13:25:10.771Z,5.30
2019-01-16T13:27:43.940Z,4.70
2019-01-16T13:30:26.948Z,4.97
2019-01-16T13:33:03.325Z,5.20
2019-01-16T13:35:33.752Z,4.63
2019-01-16T13:38:04.181Z,5.10
2019-01-16T13:40:37.265Z,6.47
2019-01-16T13:43:24.106Z,4.53
2019-01-16T13:46:06.478Z,4.53
2019-01-16T13:48:53.390Z,5.10
2019-01-16T13:51:24.042Z,4.33
2019-01-16T13:53:54.399Z,4.50
2019-01-16T13:56:24.767Z,4.83
2019-01-16T13:58:58.082Z,3.87
2019-01-16T14:01:28.530Z,4.10
2019-01-16T14:04:01.634Z,5.17
2019-01-16T14:06:32.041Z,4.93
2019-01-16T14:09:02.467Z,4.90
2019-01-16T14:11:32.694Z,3.87
2019-01-16T14:14:03.096Z,3.83
2019-01-16T14:16:39.783Z,4.13
2019-01-16T14:19:16.200Z,3.93
2019-01-16T14:21:52.806Z,4.60
2019-01-16T14:24:25.152Z,5.10
2019-01-16T14:26:55.471Z,3.87
2019-01-16T14:29:42.180Z,4.47
2019-01-16T14:32:12.586Z,4.70
2019-01-16T14:34:55.398Z,4.80
2019-01-16T14:37:25.988Z,3.97
2019-01-16T14:40:12.566Z,4.40
2019-01-16T14:42:52.129Z,6.73
2019-01-16T14:45:22.742Z,5.40
2019-01-16T14:47:59.019Z,3.90
2019-01-16T14:50:35.648Z,6.77
2019-01-16T14:53:14.726Z,5.60
2019-01-16T14:55:45.102Z,4.17
2019-01-16T14:58:21.406Z,3.73
2019-01-16T15:00:55.196Z,4.80
2019-01-16T15:03:31.492Z,5.30
2019-01-16T15:06:07.938Z,4.07
2019-01-16T15:08:38.253Z,3.70
2019-01-16T15:11:08.644Z,4.30
2019-01-16T15:13:48.036Z,4.90
2019-01-16T15:16:21.270Z,4.20
2019-01-16T15:18:54.919Z,4.47
2019-01-16T15:21:31.766Z,4.00
2019-01-16T15:24:14.148Z,4.23
2019-01-16T15:26:53.484Z,4.30
2019-01-16T15:29:35.996Z,6.40
2019-01-16T15:32:14.889Z,4.33
2019-01-16T15:34:45.303Z,4.50
2019-01-16T15:37:24.863Z,4.70
2019-01-16T15:40:04.187Z,4.27
2019-01-16T15:42:40.416Z,6.20
2019-01-16T15:45:10.796Z,4.47
2019-01-16T15:47:43.681Z,4.43
2019-01-16T15:50:14.207Z,4.83
2019-01-16T15:52:47.088Z,4.30
2019-01-16T15:55:34.920Z,5.07
2019-01-16T15:58:17.374Z,4.50
2019-01-16T16:00:53.527Z,4.60
2019-01-16T16:03:40.399Z,5.20
2019-01-16T16:06:20.083Z,5.07
2019-01-16T16:09:03.306Z,6.10
2019-01-16T16:11:34.669Z,5.70
2019-01-16T16:14:11.237Z,5.40
2019-01-16T16:16:41.856Z,4.63
2019-01-16T16:19:12.143Z,4.70
2019-01-16T16:21:42.658Z,4.23
2019-01-16T16:24:12.970Z,5.33
2019-01-16T16:26:46.296Z,5.63
2019-01-16T16:29:35.404Z,5.40
2019-01-16T16:32:21.370Z,4.90
2019-01-16T16:35:01.237Z,5.20
2019-01-16T16:37:40.755Z,4.97
2019-01-16T16:40:11.952Z,5.67
2019-01-16T16:42:45.450Z,4.70
2019-01-16T16:45:18.618Z,4.90
2019-01-16T16:47:58.232Z,4.90
2019-01-16T16:50:44.829Z,4.70
2019-01-16T16:53:15.208Z,5.30
2019-01-16T16:55:57.232Z,5.00
2019-01-16T16:58:30.630Z,5.03
2019-01-16T17:01:01.064Z,5.40
2019-01-16T17:03:38.774Z,5.53
2019-01-16T17:06:09.656Z,6.17
2019-01-16T17:08:48.937Z,5.80
2019-01-16T17:11:22.030Z,6.67
2019-01-16T17:14:00.981Z,6.53
2019-01-16T17:16:38.361Z,7.53
2019-01-16T17:19:10.026Z,6.40
2019-01-16T17:21:49.556Z,7.27
2019-01-16T17:24:26.097Z,6.90
2019-01-16T17:26:56.520Z,7.17
2019-01-16T17:29:45.150Z,6.80
2019-01-16T17:32:15.600Z,6.70
2019-01-16T17:35:01.237Z,8.43
2019-01-16T17:37:31.568Z,7.77
2019-01-16T17:40:01.983Z,7.47
2019-01-16T17:42:48.735Z,8.93
2019-01-16T17:45:22.085Z,8.57
2019-01-16T17:47:52.844Z,6.97
2019-01-16T17:50:26.094Z,7.07
2019-01-16T17:53:05.410Z,8.03
2019-01-16T17:55:55.266Z,7.70
2019-01-16T17:58:25.878Z,7.63
2019-01-16T18:01:14.503Z,8.23
2019-01-16T18:03:45.284Z,8.70
2019-01-16T18:06:20.207Z,7.90
2019-01-16T18:08:56.883Z,7.90
2019-01-16T18:11:33.197Z,5.77
2019-01-16T18:14:03.523Z,7.10
2019-01-16T18:16:39.934Z,5.50
2019-01-16T18:19:16.687Z,5.73
2019-01-16T18:22:01.836Z,6.33
2019-01-16T18:24:48.732Z,5.30
2019-01-16T18:27:21.896Z,6.20
2019-01-16T18:29:52.368Z,5.57
2019-01-16T18:32:34.909Z,5.80
2019-01-16T18:35:06.168Z,5.37
2019-01-16T18:37:39.069Z,5.93
2019-01-16T18:40:12.632Z,5.10
2019-01-16T18:42:49.471Z,5.87
2019-01-16T18:45:22.697Z,5.73
2019-01-16T18:48:09.539Z,5.93
2019-01-16T18:50:39.838Z,5.33
2019-01-16T18:53:28.159Z,5.00
2019-01-16T18:56:16.892Z,5.10
2019-01-16T18:58:56.464Z,5.57
2019-01-16T19:01:29.310Z,5.60
2019-01-16T19:04:02.737Z,5.73
2019-01-16T19:06:48.282Z,5.40
2019-01-16T19:09:18.819Z,6.10
2019-01-16T19:11:49.565Z,6.37
2019-01-16T19:14:19.941Z,6.20
2019-01-16T19:17:08.567Z,6.00
2019-01-16T19:19:38.893Z,5.67
2019-01-16T19:22:18.332Z,5.83
2019-01-16T19:25:03.658Z,6.80
2019-01-16T19:27:34.057Z,5.73
2019-01-16T19:30:13.415Z,6.17
2019-01-16T19:32:43.729Z,6.33
2019-01-16T19:35:32.288Z,6.60
2019-01-16T19:38:18.992Z,6.40
2019-01-16T19:40:52.189Z,6.37
2019-01-16T19:43:28.774Z,6.50
2019-01-16T19:45:59.092Z,7.67
2019-01-16T19:48:32.188Z,7.20
2019-01-16T19:51:11.699Z,6.73
2019-01-16T19:53:42.084Z,7.00
2019-01-16T19:56:14.068Z,6.50
2019-01-16T19:58:47.584Z,7.97
2019-01-16T20:01:27.255Z,7.43
2019-01-16T20:03:58.366Z,6.73
2019-01-16T20:06:28.791Z,6.83
2019-01-16T20:09:08.561Z,6.77
2019-01-16T20:11:55.449Z,6.80
2019-01-16T20:14:31.790Z,7.93
2019-01-16T20:16:57.986Z,7.57
2019-01-16T20:19:28.424Z,6.53
2019-01-16T20:22:16.721Z,7.30
2019-01-16T20:24:50.350Z,7.93
2019-01-16T20:27:20.728Z,7.50
2019-01-16T20:29:57.325Z,7.17
2019-01-16T20:32:34.179Z,7.63
2019-01-16T20:35:16.887Z,8.50
2019-01-16T20:37:53.558Z,8.30
2019-01-16T20:40:40.210Z,7.30
2019-01-16T20:43:12.886Z,7.03
2019-01-16T20:45:50.908Z,8.93
2019-01-16T20:48:21.374Z,8.17
2019-01-16T20:51:10.455Z,7.83
2019-01-16T20:53:57.039Z,7.30
2019-01-16T20:56:33.242Z,8.07
2019-01-16T20:59:03.566Z,7.73
2019-01-16T21:01:40.212Z,8.37
2019-01-16T21:04:16.105Z,8.60
2019-01-16T21:06:55.831Z,7.73
2019-01-16T21:09:32.049Z,8.07
2019-01-16T21:12:02.620Z,8.30
2019-01-16T21:14:49.388Z,7.60
2019-01-16T21:17:22.934Z,7.43
2019-01-16T21:19:55.971Z,8.33
2019-01-16T21:22:42.925Z,7.20
2019-01-16T21:25:27.774Z,8.47
2019-01-16T21:28:04.255Z,8.73
2019-01-16T21:30:43.661Z,8.43
2019-01-16T21:33:30.049Z,8.13
2019-01-16T21:36:08.988Z,8.07
2019-01-16T21:38:55.982Z,7.77
2019-01-16T21:41:39.107Z,7.20
2019-01-16T21:44:09.481Z,8.67
2019-01-16T21:46:39.849Z,8.20
2019-01-16T21:49:10.734Z,8.00
2019-01-16T21:51:57.085Z,9.20
2019-01-16T21:54:44.454Z,6.83
2019-01-16T21:57:23.785Z,8.60
2019-01-16T22:00:00.104Z,9.27
2019-01-16T22:02:45.409Z,8.80
2019-01-16T22:05:31.966Z,9.90
2019-01-16T22:08:05.220Z,8.63
2019-01-16T22:10:52.185Z,9.37
2019-01-16T22:13:26.258Z,8.80
2019-01-16T22:16:13.997Z,9.10
2019-01-16T22:18:59.216Z,9.40
2019-01-16T22:21:39.180Z,9.33
2019-01-16T22:24:11.298Z,9.53
2019-01-16T22:26:41.740Z,9.30
2019-01-16T22:29:12.168Z,9.00
2019-01-16T22:31:59.177Z,8.27
2019-01-16T22:34:41.779Z,8.87
2019-01-16T22:37:24.092Z,8.10
2019-01-16T22:39:54.563Z,8.87
2019-01-16T22:42:40.920Z,8.27
2019-01-16T22:45:16.507Z,7.90
2019-01-16T22:47:50.311Z,8.17
2019-01-16T22:50:26.983Z,8.30
2019-01-16T22:53:15.825Z,7.97
2019-01-16T22:55:46.353Z,9.10
2019-01-16T22:58:16.749Z,8.70
2019-01-16T23:00:48.752Z,7.90
2019-01-16T23:03:19.239Z,7.33
2019-01-16T23:06:06.348Z,7.93
2019-01-16T23:08:42.904Z,7.33
2019-01-16T23:11:29.892Z,7.70
2019-01-16T23:14:03.330Z,9.03
2019-01-16T23:16:51.595Z,7.67
2019-01-16T23:19:24.558Z,8.10
2019-01-16T23:22:11.143Z,8.30
2019-01-16T23:24:41.823Z,7.40
2019-01-16T23:27:15.202Z,7.70
2019-01-16T23:29:54.359Z,8.53
2019-01-16T23:32:27.242Z,8.17
2019-01-16T23:35:06.448Z,8.40
2019-01-16T23:37:36.859Z,8.27
2019-01-16T23:40:09.025Z,9.53
2019-01-16T23:42:57.462Z,7.83
2019-01-16T23:45:33.773Z,8.60
2019-01-16T23:48:16.250Z,9.20
2019-01-16T23:50:58.984Z,9.07
2019-01-16T23:53:29.479Z,9.07
2019-01-16T23:56:05.671Z,8.70
2019-01-16T23:58:38.624Z,9.10
